CFG249 MDPC-EDDF
Flight info
| Callsign | CFG249 |
|---|---|
| Flight time | N/A |
| Altitude | 33000 |
| Route | CHUMA2T CHUMA Y315 KEEKA/M083F330 M597 FIVZE DCT 32N050W 39N040W 43N030W 47N020W DCT BEDRA DCT NASBA DCT GAPLI/N0478F330 DCT SIDDI DCT DAWLY DCT GIBSO L620 SAM M140 DVR UL9 KONAN DCT KOK DCT DENOX L607 GILOM M624 REMBA DCT SPI T180 NIVNU T847 IMCOM IMCOM1A |
| Aircraft | A339/H-SADE1E2E3GHIJ3J5M1P2RWXY/LB2D1 |
Departure
| Time | N/A |
|---|---|
| Airport | Punta Cana International Airport (MDPC) |
Arrival
| Time | 2026-05-08 03:56 |
|---|---|
| Airport | Frankfurt Main Airport (EDDF) |
| Time | Latitude | Longitude | Altitude | Speed | Heading |
|---|---|---|---|---|---|
| 2026-05-08 02:54 | 50.95683 | -1.32851 | 33036 ft | 481 kts | 81° |
| 2026-05-08 02:54 | 50.96092 | -1.29033 | 33034 ft | 480 kts | 83° |
| 2026-05-08 02:55 | 50.97162 | -1.16997 | 33031 ft | 480 kts | 83° |
| 2026-05-08 02:56 | 50.97884 | -1.08571 | 33034 ft | 480 kts | 83° |
| 2026-05-08 02:56 | 50.98775 | -0.98134 | 33033 ft | 480 kts | 83° |
| 2026-05-08 02:57 | 50.99668 | -0.87621 | 33025 ft | 480 kts | 83° |
| 2026-05-08 02:57 | 51.00560 | -0.77014 | 33025 ft | 480 kts | 83° |
| 2026-05-08 02:58 | 51.01436 | -0.66460 | 33031 ft | 481 kts | 83° |
| 2026-05-08 02:58 | 51.02302 | -0.55900 | 33037 ft | 481 kts | 83° |
| 2026-05-08 02:59 | 51.03165 | -0.45259 | 33035 ft | 481 kts | 84° |
| 2026-05-08 02:59 | 51.04012 | -0.34676 | 33032 ft | 480 kts | 84° |
| 2026-05-08 03:00 | 51.04755 | -0.25294 | 33035 ft | 480 kts | 84° |
| 2026-05-08 03:00 | 51.05583 | -0.14685 | 33038 ft | 480 kts | 84° |
| 2026-05-08 03:01 | 51.06365 | -0.04509 | 33040 ft | 480 kts | 84° |
| 2026-05-08 03:01 | 51.07098 | 0.05085 | 33037 ft | 480 kts | 84° |
| 2026-05-08 03:02 | 51.07915 | 0.15679 | 33034 ft | 480 kts | 84° |
| 2026-05-08 03:02 | 51.08711 | 0.26235 | 33035 ft | 481 kts | 84° |
| 2026-05-08 03:03 | 51.09486 | 0.36751 | 33032 ft | 481 kts | 84° |
| 2026-05-08 03:03 | 51.10233 | 0.47097 | 33030 ft | 481 kts | 84° |
| 2026-05-08 03:04 | 51.10979 | 0.57507 | 33031 ft | 482 kts | 84° |
| 2026-05-08 03:04 | 51.11749 | 0.68141 | 33033 ft | 482 kts | 85° |
| 2026-05-08 03:05 | 51.12504 | 0.78804 | 33034 ft | 482 kts | 85° |
| 2026-05-08 03:05 | 51.13239 | 0.89441 | 33037 ft | 482 kts | 85° |
| 2026-05-08 03:06 | 51.13954 | 0.99982 | 33042 ft | 482 kts | 85° |
| 2026-05-08 03:06 | 51.14667 | 1.10677 | 33035 ft | 481 kts | 85° |
| 2026-05-08 03:07 | 51.15358 | 1.21226 | 33019 ft | 481 kts | 85° |
| 2026-05-08 03:07 | 51.15987 | 1.31806 | 33015 ft | 480 kts | 87° |
| 2026-05-08 03:08 | 51.16024 | 1.42379 | 33023 ft | 479 kts | 94° |
| 2026-05-08 03:08 | 51.15537 | 1.52957 | 33021 ft | 479 kts | 95° |
| 2026-05-08 03:09 | 51.15004 | 1.63498 | 33019 ft | 480 kts | 95° |
| 2026-05-08 03:09 | 51.14467 | 1.74141 | 33018 ft | 480 kts | 96° |
| 2026-05-08 03:10 | 51.13926 | 1.84703 | 33019 ft | 481 kts | 96° |
| 2026-05-08 03:10 | 51.13374 | 1.95265 | 33019 ft | 480 kts | 96° |
| 2026-05-08 03:11 | 51.12825 | 2.05826 | 33023 ft | 480 kts | 96° |
| 2026-05-08 03:11 | 51.12270 | 2.16425 | 33023 ft | 480 kts | 96° |
| 2026-05-08 03:12 | 51.11698 | 2.26961 | 33020 ft | 480 kts | 96° |
| 2026-05-08 03:12 | 51.11109 | 2.37530 | 33024 ft | 480 kts | 96° |
| 2026-05-08 03:13 | 51.10503 | 2.48159 | 33028 ft | 481 kts | 96° |
| 2026-05-08 03:13 | 51.09894 | 2.58719 | 33034 ft | 481 kts | 96° |
| 2026-05-08 03:14 | 51.08915 | 2.69191 | 33036 ft | 481 kts | 103° |
| 2026-05-08 03:14 | 51.07461 | 2.79109 | 33043 ft | 480 kts | 105° |
| 2026-05-08 03:15 | 51.05875 | 2.89504 | 33044 ft | 479 kts | 105° |
| 2026-05-08 03:15 | 51.04303 | 2.99766 | 33044 ft | 479 kts | 105° |
| 2026-05-08 03:16 | 51.02719 | 3.10064 | 33041 ft | 479 kts | 105° |
| 2026-05-08 03:16 | 51.01128 | 3.20353 | 33038 ft | 480 kts | 105° |
| 2026-05-08 03:17 | 50.99516 | 3.30711 | 33036 ft | 480 kts | 105° |
| 2026-05-08 03:17 | 50.97906 | 3.40987 | 33037 ft | 480 kts | 105° |
| 2026-05-08 03:18 | 50.96274 | 3.51334 | 33037 ft | 481 kts | 105° |
| 2026-05-08 03:18 | 50.94635 | 3.61659 | 33032 ft | 481 kts | 105° |
| 2026-05-08 03:19 | 50.93057 | 3.71537 | 33034 ft | 481 kts | 106° |
| 2026-05-08 03:19 | 50.91401 | 3.81827 | 33036 ft | 481 kts | 106° |
| 2026-05-08 03:20 | 50.89732 | 3.92110 | 33042 ft | 481 kts | 106° |
| 2026-05-08 03:20 | 50.88067 | 4.02326 | 33037 ft | 481 kts | 106° |
| 2026-05-08 03:21 | 50.86360 | 4.12638 | 33035 ft | 481 kts | 106° |
| 2026-05-08 03:21 | 50.84631 | 4.22909 | 33042 ft | 481 kts | 106° |
| 2026-05-08 03:22 | 50.82890 | 4.33154 | 33035 ft | 481 kts | 106° |
| 2026-05-08 03:22 | 50.81150 | 4.43318 | 33051 ft | 482 kts | 106° |
| 2026-05-08 03:23 | 50.79378 | 4.53597 | 33042 ft | 482 kts | 106° |
| 2026-05-08 03:23 | 50.77563 | 4.63840 | 33041 ft | 481 kts | 109° |
| 2026-05-08 03:24 | 50.75166 | 4.73057 | 33033 ft | 479 kts | 119° |
| 2026-05-08 03:24 | 50.72008 | 4.81410 | 33043 ft | 477 kts | 125° |
| 2026-05-08 03:25 | 50.68330 | 4.90191 | 33031 ft | 478 kts | 125° |
| 2026-05-08 03:25 | 50.65193 | 4.98975 | 33031 ft | 481 kts | 117° |
| 2026-05-08 03:26 | 50.62875 | 5.08493 | 33043 ft | 483 kts | 110° |
| 2026-05-08 03:26 | 50.60790 | 5.18544 | 33039 ft | 483 kts | 109° |
| 2026-05-08 03:27 | 50.58683 | 5.28648 | 33041 ft | 483 kts | 109° |
| 2026-05-08 03:27 | 50.56574 | 5.38649 | 33042 ft | 483 kts | 109° |
| 2026-05-08 03:27 | 50.55495 | 5.43729 | 32778 ft | 482 kts | 109° |
| 2026-05-08 03:28 | 50.54427 | 5.48738 | 31874 ft | 489 kts | 109° |
| 2026-05-08 03:28 | 50.53332 | 5.53852 | 30892 ft | 495 kts | 109° |
| 2026-05-08 03:28 | 50.52240 | 5.58958 | 30057 ft | 496 kts | 109° |
| 2026-05-08 03:28 | 50.51189 | 5.64095 | 29248 ft | 497 kts | 107° |
| 2026-05-08 03:29 | 50.50252 | 5.69134 | 28437 ft | 497 kts | 107° |
| 2026-05-08 03:29 | 50.49339 | 5.74081 | 27746 ft | 495 kts | 107° |
| 2026-05-08 03:29 | 50.48384 | 5.79232 | 27109 ft | 491 kts | 107° |
| 2026-05-08 03:29 | 50.47419 | 5.84409 | 26637 ft | 484 kts | 107° |
| 2026-05-08 03:30 | 50.45527 | 5.94465 | 25651 ft | 472 kts | 107° |
| 2026-05-08 03:30 | 50.43815 | 6.03488 | 24578 ft | 465 kts | 107° |
| 2026-05-08 03:31 | 50.41959 | 6.13212 | 23428 ft | 458 kts | 107° |
| 2026-05-08 03:31 | 50.40118 | 6.22794 | 22312 ft | 450 kts | 107° |
| 2026-05-08 03:32 | 50.39223 | 6.27439 | 21764 ft | 446 kts | 107° |
| 2026-05-08 03:32 | 50.38353 | 6.31948 | 21229 ft | 443 kts | 107° |
| 2026-05-08 03:32 | 50.37462 | 6.36574 | 20677 ft | 440 kts | 107° |
| 2026-05-08 03:32 | 50.36731 | 6.41173 | 20139 ft | 437 kts | 102° |
| 2026-05-08 03:33 | 50.36213 | 6.45929 | 19592 ft | 434 kts | 97° |
| 2026-05-08 03:33 | 50.35895 | 6.50658 | 19053 ft | 431 kts | 95° |
| 2026-05-08 03:33 | 50.35605 | 6.55383 | 18516 ft | 428 kts | 95° |
| 2026-05-08 03:33 | 50.35315 | 6.60049 | 17999 ft | 425 kts | 95° |
| 2026-05-08 03:34 | 50.35020 | 6.64689 | 17497 ft | 422 kts | 96° |
| 2026-05-08 03:34 | 50.34727 | 6.69235 | 17007 ft | 418 kts | 96° |
| 2026-05-08 03:34 | 50.34432 | 6.73805 | 16519 ft | 414 kts | 96° |
| 2026-05-08 03:34 | 50.34199 | 6.77451 | 16119 ft | 411 kts | 96° |
| 2026-05-08 03:35 | 50.33971 | 6.81106 | 15718 ft | 408 kts | 96° |
| 2026-05-08 03:35 | 50.33720 | 6.83905 | 15402 ft | 406 kts | 101° |
| 2026-05-08 03:35 | 50.32578 | 6.89952 | 14691 ft | 401 kts | 113° |
| 2026-05-08 03:36 | 50.31431 | 6.93925 | 14197 ft | 397 kts | 116° |
| 2026-05-08 03:36 | 50.30252 | 6.97782 | 13714 ft | 395 kts | 116° |
| 2026-05-08 03:36 | 50.29070 | 7.01659 | 13229 ft | 392 kts | 116° |
| 2026-05-08 03:36 | 50.27919 | 7.05486 | 12763 ft | 389 kts | 115° |
| 2026-05-08 03:37 | 50.26777 | 7.09301 | 12287 ft | 386 kts | 115° |
| 2026-05-08 03:37 | 50.25642 | 7.13090 | 11820 ft | 383 kts | 115° |
| 2026-05-08 03:37 | 50.24508 | 7.16867 | 11363 ft | 380 kts | 115° |
| 2026-05-08 03:37 | 50.23388 | 7.20591 | 10907 ft | 376 kts | 115° |
| 2026-05-08 03:38 | 50.22283 | 7.24262 | 10519 ft | 371 kts | 115° |
| 2026-05-08 03:38 | 50.21186 | 7.27899 | 10246 ft | 363 kts | 115° |
| 2026-05-08 03:38 | 50.20127 | 7.31413 | 10137 ft | 349 kts | 115° |
| 2026-05-08 03:38 | 50.19253 | 7.34666 | 10030 ft | 321 kts | 111° |
| 2026-05-08 03:39 | 50.18502 | 7.37806 | 9905 ft | 299 kts | 110° |
| 2026-05-08 03:39 | 50.17783 | 7.40844 | 9628 ft | 294 kts | 110° |
| 2026-05-08 03:39 | 50.17086 | 7.43779 | 9239 ft | 284 kts | 110° |
| 2026-05-08 03:39 | 50.16411 | 7.46610 | 9019 ft | 270 kts | 110° |
| 2026-05-08 03:40 | 50.15759 | 7.49334 | 8856 ft | 264 kts | 110° |
| 2026-05-08 03:40 | 50.15120 | 7.51995 | 8664 ft | 259 kts | 112° |
| 2026-05-08 03:40 | 50.14171 | 7.54294 | 8497 ft | 251 kts | 139° |
| 2026-05-08 03:40 | 50.12746 | 7.55813 | 8306 ft | 246 kts | 150° |
| 2026-05-08 03:41 | 50.11232 | 7.57084 | 8044 ft | 245 kts | 152° |
| 2026-05-08 03:41 | 50.09712 | 7.58293 | 7766 ft | 244 kts | 153° |
| 2026-05-08 03:41 | 50.08199 | 7.59476 | 7503 ft | 243 kts | 153° |
| 2026-05-08 03:41 | 50.06702 | 7.60635 | 7245 ft | 242 kts | 152° |
| 2026-05-08 03:42 | 50.05314 | 7.62071 | 7067 ft | 238 kts | 139° |
| 2026-05-08 03:42 | 50.04077 | 7.63788 | 6948 ft | 239 kts | 136° |
| 2026-05-08 03:42 | 50.02939 | 7.65412 | 6830 ft | 239 kts | 137° |
| 2026-05-08 03:42 | 50.01673 | 7.67183 | 6589 ft | 237 kts | 138° |
| 2026-05-08 03:43 | 50.00442 | 7.68862 | 6308 ft | 237 kts | 138° |
| 2026-05-08 03:43 | 49.99290 | 7.70411 | 6071 ft | 236 kts | 139° |
| 2026-05-08 03:43 | 49.98041 | 7.72073 | 5814 ft | 235 kts | 139° |
| 2026-05-08 03:43 | 49.96809 | 7.73704 | 5559 ft | 234 kts | 139° |
| 2026-05-08 03:44 | 49.95559 | 7.75351 | 5301 ft | 233 kts | 139° |
| 2026-05-08 03:44 | 49.94313 | 7.76990 | 5044 ft | 232 kts | 139° |
| 2026-05-08 03:44 | 49.93076 | 7.78615 | 4797 ft | 231 kts | 139° |
| 2026-05-08 03:44 | 49.91843 | 7.80237 | 4558 ft | 230 kts | 139° |
| 2026-05-08 03:45 | 49.90623 | 7.81839 | 4317 ft | 229 kts | 139° |
| 2026-05-08 03:45 | 49.89415 | 7.83426 | 4078 ft | 228 kts | 139° |
| 2026-05-08 03:45 | 49.88222 | 7.85029 | 3975 ft | 219 kts | 132° |
| 2026-05-08 03:45 | 49.87451 | 7.86969 | 3958 ft | 206 kts | 106° |
| 2026-05-08 03:46 | 49.87268 | 7.89098 | 3960 ft | 193 kts | 85° |
| 2026-05-08 03:46 | 49.87359 | 7.90876 | 3963 ft | 183 kts | 85° |
| 2026-05-08 03:46 | 49.87641 | 7.92785 | 3971 ft | 183 kts | 66° |
| 2026-05-08 03:46 | 49.88180 | 7.94488 | 3980 ft | 184 kts | 63° |
| 2026-05-08 03:47 | 49.88749 | 7.96277 | 3979 ft | 184 kts | 65° |
| 2026-05-08 03:47 | 49.89279 | 7.98112 | 3979 ft | 184 kts | 67° |
| 2026-05-08 03:47 | 49.89768 | 7.99940 | 3992 ft | 184 kts | 68° |
| 2026-05-08 03:47 | 49.90258 | 8.01794 | 3999 ft | 184 kts | 66° |
| 2026-05-08 03:48 | 49.90789 | 8.03611 | 3989 ft | 184 kts | 66° |
| 2026-05-08 03:48 | 49.91305 | 8.05403 | 3988 ft | 184 kts | 67° |
| 2026-05-08 03:48 | 49.91808 | 8.07243 | 3990 ft | 183 kts | 68° |
| 2026-05-08 03:48 | 49.92286 | 8.09078 | 3982 ft | 183 kts | 68° |
| 2026-05-08 03:49 | 49.92735 | 8.10877 | 3983 ft | 183 kts | 69° |
| 2026-05-08 03:49 | 49.93187 | 8.12747 | 3986 ft | 184 kts | 69° |
| 2026-05-08 03:49 | 49.93626 | 8.14611 | 3988 ft | 184 kts | 70° |
| 2026-05-08 03:49 | 49.94065 | 8.16501 | 3988 ft | 184 kts | 70° |
| 2026-05-08 03:50 | 49.94500 | 8.18383 | 3987 ft | 184 kts | 70° |
| 2026-05-08 03:50 | 49.94933 | 8.20267 | 3989 ft | 185 kts | 70° |
| 2026-05-08 03:50 | 49.95363 | 8.22138 | 3990 ft | 185 kts | 70° |
| 2026-05-08 03:50 | 49.95803 | 8.24041 | 3990 ft | 185 kts | 70° |
| 2026-05-08 03:51 | 49.96235 | 8.25904 | 3989 ft | 185 kts | 70° |
| 2026-05-08 03:51 | 49.96677 | 8.27797 | 3829 ft | 186 kts | 70° |
| 2026-05-08 03:51 | 49.97118 | 8.29682 | 3584 ft | 186 kts | 70° |
| 2026-05-08 03:51 | 49.97565 | 8.31582 | 3336 ft | 185 kts | 70° |
| 2026-05-08 03:52 | 49.98003 | 8.33440 | 3093 ft | 185 kts | 70° |
| 2026-05-08 03:52 | 49.98449 | 8.35326 | 2841 ft | 183 kts | 70° |
| 2026-05-08 03:52 | 49.98884 | 8.37163 | 2595 ft | 175 kts | 70° |
| 2026-05-08 03:52 | 49.99298 | 8.38909 | 2354 ft | 169 kts | 70° |
| 2026-05-08 03:53 | 49.99696 | 8.40580 | 2124 ft | 162 kts | 70° |
| 2026-05-08 03:53 | 50.00080 | 8.42196 | 1906 ft | 155 kts | 69° |
| 2026-05-08 03:53 | 50.00449 | 8.43744 | 1675 ft | 150 kts | 69° |
| 2026-05-08 03:53 | 50.00811 | 8.45256 | 1417 ft | 147 kts | 69° |
| 2026-05-08 03:54 | 50.01146 | 8.46718 | 1210 ft | 141 kts | 68° |
| 2026-05-08 03:54 | 50.01477 | 8.48080 | 1004 ft | 136 kts | 66° |
| 2026-05-08 03:54 | 50.01815 | 8.49465 | 849 ft | 138 kts | 69° |
| 2026-05-08 03:54 | 50.02146 | 8.50886 | 708 ft | 138 kts | 66° |
| 2026-05-08 03:55 | 50.02482 | 8.52285 | 525 ft | 137 kts | 66° |
| 2026-05-08 03:55 | 50.02813 | 8.53664 | 398 ft | 136 kts | 67° |
| 2026-05-08 03:55 | 50.03117 | 8.54931 | 378 ft | 111 kts | 69° |
| 2026-05-08 03:55 | 50.03325 | 8.55797 | 378 ft | 57 kts | 69° |
| 2026-05-08 03:56 | 50.03424 | 8.56193 | 377 ft | 26 kts | 57° |
| 2026-05-08 03:56 | 50.03525 | 8.56356 | 377 ft | 16 kts | 38° |
| 2026-05-08 03:56 | 50.03607 | 8.56463 | 377 ft | 11 kts | 39° |
| 2026-05-08 03:56 | 50.03675 | 8.56549 | 377 ft | 12 kts | 39° |
| 2026-05-08 03:57 | 50.03725 | 8.56613 | 377 ft | 9 kts | 37° |
| 2026-05-08 03:57 | 50.03788 | 8.56649 | 377 ft | 10 kts | 9° |
| 2026-05-08 03:57 | 50.03861 | 8.56671 | 377 ft | 11 kts | 11° |
| 2026-05-08 03:57 | 50.03937 | 8.56695 | 377 ft | 12 kts | 11° |
| 2026-05-08 03:58 | 50.04026 | 8.56725 | 377 ft | 13 kts | 12° |
| 2026-05-08 03:58 | 50.04122 | 8.56756 | 377 ft | 14 kts | 11° |
| 2026-05-08 03:58 | 50.04223 | 8.56788 | 377 ft | 15 kts | 12° |
| 2026-05-08 03:58 | 50.04328 | 8.56822 | 377 ft | 15 kts | 11° |
| 2026-05-08 03:59 | 50.04438 | 8.56845 | 377 ft | 16 kts | 2° |
| 2026-05-08 03:59 | 50.04511 | 8.56855 | 377 ft | 7 kts | 26° |
| 2026-05-08 03:59 | 50.04542 | 8.56916 | 377 ft | 7 kts | 60° |
| 2026-05-08 03:59 | 50.04569 | 8.56987 | 377 ft | 8 kts | 59° |
| 2026-05-08 04:00 | 50.04595 | 8.57057 | 377 ft | 0 kts | 60° |